Time;durP1;ratioP1;P1;durP2;ratioP2;P2;SDS_P1;SDS_P2;PMS_P1;PMS_P2;Temp;Humidity;BMP_temperature;BMP_pressure;BME280_temperature;BME280_humidity;BME280_pressure;Samples;Min_cycle;Max_cycle;Signal;HPM_P1;HPM_P2
2023/10/16 00:03:41;;;;;;;5.43;2.72;;;;;;;8.46;58.23;100086.91;7766888;32;39474;-83
2023/10/16 00:08:05;;;;;;;4.55;2.50;;;;;;;8.07;59.47;100106.69;7765976;32;37682;-83
2023/10/16 00:12:22;;;;;;;4.65;2.45;;;;;;;8.09;59.34;100114.59;7766042;32;36782;-83
2023/10/16 00:16:39;;;;;;;7.57;2.87;;;;;;;8.02;59.62;100122.06;7766107;32;39332;-83
2023/10/16 00:20:55;;;;;;;4.00;2.67;;;;;;;8.08;59.21;100135.47;7765656;32;40818;-83
2023/10/16 00:25:11;;;;;;;4.50;2.65;;;;;;;8.04;59.37;100137.06;7765576;32;37820;-83
2023/10/16 00:29:38;;;;;;;7.12;2.65;;;;;;;7.94;59.48;100136.06;7764943;32;37917;-83
2023/10/16 00:33:54;;;;;;;3.83;2.60;;;;;;;8.12;58.90;100141.22;7765969;32;39131;-83
2023/10/16 00:38:14;;;;;;;5.00;2.80;;;;;;;7.69;60.15;100131.81;7765473;32;40852;-83
2023/10/16 00:42:32;;;;;;;3.58;2.40;;;;;;;7.67;59.90;100129.34;7766042;32;37561;-84
2023/10/16 00:46:49;;;;;;;5.32;2.55;;;;;;;7.42;60.39;100127.00;7765654;32;35986;-83
2023/10/16 00:51:10;;;;;;;3.92;2.50;;;;;;;7.66;59.50;100133.16;7776073;32;39310;-84
2023/10/16 00:55:26;;;;;;;4.22;2.60;;;;;;;7.61;59.65;100137.66;7779122;32;39710;-80
2023/10/16 00:59:42;;;;;;;6.25;2.97;;;;;;;7.15;61.22;100137.59;7792470;32;37859;-83
2023/10/16 01:03:59;;;;;;;4.57;2.97;;;;;;;7.12;61.05;100143.50;7771649;32;37107;-83
2023/10/16 01:08:17;;;;;;;5.47;3.00;;;;;;;7.01;61.40;100131.63;7765263;32;40098;-82
2023/10/16 01:12:36;;;;;;;6.80;2.53;;;;;;;7.02;61.16;100130.56;7765236;32;40402;-84
2023/10/16 01:16:56;;;;;;;4.75;2.50;;;;;;;7.46;60.63;100141.72;7765237;32;37814;-83
2023/10/16 01:21:17;;;;;;;6.87;2.60;;;;;;;7.38;61.29;100147.56;7765096;32;37918;-84
2023/10/16 01:25:33;;;;;;;4.22;2.47;;;;;;;7.36;61.10;100149.66;7764952;32;39373;-84
2023/10/16 01:29:50;;;;;;;4.50;2.72;;;;;;;7.53;60.14;100153.25;7764974;32;39959;-85
2023/10/16 01:34:12;;;;;;;5.60;2.75;;;;;;;7.79;59.42;100150.19;7764881;32;38431;-84
2023/10/16 01:38:28;;;;;;;6.05;2.78;;;;;;;7.90;58.92;100162.87;7764745;32;37738;-84
2023/10/16 01:42:45;;;;;;;5.60;2.90;;;;;;;8.00;58.92;100171.22;7773949;32;40041;-85
2023/10/16 01:47:03;;;;;;;3.17;2.55;;;;;;;7.92;58.99;100185.19;7776293;32;40048;-84
2023/10/16 01:51:19;;;;;;;8.27;2.70;;;;;;;8.26;58.08;100185.19;7791714;32;37244;-83
2023/10/16 01:55:37;;;;;;;6.00;2.72;;;;;;;8.11;57.66;100203.97;7791850;32;37297;-82
2023/10/16 01:59:53;;;;;;;6.37;2.67;;;;;;;8.35;57.20;100199.22;7791579;32;37848;-83
2023/10/16 02:04:10;;;;;;;4.47;2.47;;;;;;;7.74;59.08;100212.53;7791581;32;40630;-83
2023/10/16 02:08:26;;;;;;;4.12;2.45;;;;;;;7.99;58.36;100213.00;7791468;32;38767;-83
2023/10/16 02:12:44;;;;;;;3.15;2.50;;;;;;;7.82;58.84;100220.28;7791353;32;37782;-83
2023/10/16 02:17:03;;;;;;;6.05;2.83;;;;;;;7.92;58.35;100216.91;7791368;32;39493;-83
2023/10/16 02:21:22;;;;;;;3.92;2.40;;;;;;;7.89;58.07;100219.06;7791143;32;40906;-83
2023/10/16 02:25:38;;;;;;;2.33;2.00;;;;;;;8.11;57.41;100218.34;7790366;32;37685;-83
2023/10/16 02:29:54;;;;;;;3.78;2.20;;;;;;;8.20;57.19;100210.63;7790689;32;37047;-83
2023/10/16 02:34:12;;;;;;;3.22;2.15;;;;;;;8.21;57.22;100210.37;7790744;32;39449;-84
2023/10/16 02:38:28;;;;;;;4.37;2.10;;;;;;;8.27;56.82;100216.72;7790834;32;40129;-83
2023/10/16 02:42:51;;;;;;;6.93;2.60;;;;;;;7.78;57.66;100221.81;7753251;32;37958;-83
2023/10/16 02:47:12;;;;;;;7.60;2.15;;;;;;;7.65;57.64;100228.38;7763531;32;36775;-83
2023/10/16 02:51:29;;;;;;;3.75;2.47;;;;;;;7.52;58.54;100243.87;7764166;32;39478;-84
2023/10/16 02:55:45;;;;;;;4.82;2.40;;;;;;;7.51;58.46;100239.50;7766759;32;39860;-83
2023/10/16 03:00:07;;;;;;;2.80;2.47;;;;;;;7.72;57.59;100234.47;7766716;32;37659;-83
2023/10/16 03:04:24;;;;;;;3.97;2.65;;;;;;;7.59;57.89;100240.16;7766817;32;37902;-83
2023/10/16 03:09:25;;;;;;;4.57;2.42;;;;;;;7.52;58.09;100233.00;7753036;32;40184;-83
2023/10/16 03:13:20;;;;;;;2.72;2.20;;;;;;;7.73;57.57;100238.84;7765468;32;39627;-83
2023/10/16 03:17:37;;;;;;;3.05;2.10;;;;;;;7.81;57.33;100235.75;7766450;32;37811;-84
2023/10/16 03:21:54;;;;;;;2.72;2.22;;;;;;;7.94;56.82;100250.09;7766851;32;38334;-83
2023/10/16 03:26:30;;;;;;;3.10;2.42;;;;;;;8.10;56.36;100252.00;7766389;32;39352;-83
2023/10/16 03:30:47;;;;;;;3.22;2.58;;;;;;;7.97;56.51;100252.28;7766405;32;40813;-83
2023/10/16 03:35:06;;;;;;;3.50;2.60;;;;;;;7.66;57.45;100257.16;7766409;32;38156;-83
2023/10/16 03:39:22;;;;;;;3.00;2.30;;;;;;;7.77;57.14;100256.28;7766309;32;36894;-83
2023/10/16 03:43:42;;;;;;;2.35;2.15;;;;;;;7.99;56.33;100269.19;7753004;32;40021;-83
2023/10/16 03:48:03;;;;;;;3.45;2.30;;;;;;;7.63;57.30;100265.78;7766265;32;40820;-83
2023/10/16 03:52:19;;;;;;;4.15;2.62;;;;;;;7.61;57.43;100285.00;7766863;32;37906;-83
2023/10/16 03:56:35;;;;;;;2.90;2.50;;;;;;;7.59;57.33;100294.44;7766029;32;36986;-84
2023/10/16 04:00:57;;;;;;;3.62;2.30;;;;;;;7.77;56.62;100285.31;7766071;32;40049;-84
2023/10/16 04:09:49;;;;;;;3.70;2.62;;;;;;;7.71;57.31;100297.97;7765990;32;38573;-83
2023/10/16 04:14:08;;;;;;;9.40;2.65;;;;;;;7.65;57.34;100294.31;7752182;32;37631;-83
2023/10/16 04:22:49;;;;;;;4.80;2.90;;;;;;;7.36;57.95;100308.88;7765573;32;39490;-84
2023/10/16 04:31:43;;;;;;;4.15;2.65;;;;;;;7.57;57.62;100307.44;7765820;32;36895;-84
2023/10/16 04:49:45;;;;;;;6.22;3.00;;;;;;;7.25;58.09;100321.41;7766289;32;37311;-83
2023/10/16 04:58:47;;;;;;;7.90;2.72;;;;;;;7.30;58.49;100307.97;7742117;32;40770;-85
2023/10/16 05:07:53;;;;;;;7.95;3.42;;;;;;;7.24;58.51;100295.34;7750530;32;37142;-83
2023/10/16 06:16:28;;;;;;;4.43;3.22;;;;;;;6.99;61.75;100364.19;7764096;32;38692;-80
2023/10/16 06:20:44;;;;;;;8.00;3.60;;;;;;;7.15;60.82;100371.59;7764038;32;38923;-81
2023/10/16 06:25:01;;;;;;;4.47;2.97;;;;;;;7.53;59.70;100372.19;7763875;32;40094;-78
2023/10/16 06:29:18;;;;;;;3.92;2.85;;;;;;;7.91;58.56;100368.12;7765791;32;39986;-81
2023/10/16 06:33:36;;;;;;;5.70;3.30;;;;;;;7.84;59.10;100381.81;7767117;32;38581;-81
2023/10/16 06:37:52;;;;;;;4.60;2.92;;;;;;;7.79;58.66;100387.16;7788098;32;37685;-81
2023/10/16 06:42:14;;;;;;;4.32;2.65;;;;;;;8.26;57.79;100392.47;7794303;32;39324;-81
2023/10/16 06:46:31;;;;;;;97.20;35.97;;;;;;;8.46;57.04;100396.66;7794196;32;40720;-81
2023/10/16 06:50:54;;;;;;;5.47;3.20;;;;;;;8.72;56.69;100394.44;7793962;32;37707;-82
2023/10/16 06:55:13;;;;;;;5.72;3.12;;;;;;;8.69;55.98;100390.28;7794169;32;36895;-82
2023/10/16 06:59:30;;;;;;;6.87;3.65;;;;;;;8.69;56.64;100393.00;7794145;32;40167;-82
2023/10/16 07:03:47;;;;;;;5.47;3.10;;;;;;;9.02;55.83;100394.94;7793847;32;39826;-82
2023/10/16 07:08:04;;;;;;;4.32;2.75;;;;;;;9.29;54.53;100393.47;7793802;32;37946;-82
2023/10/16 07:12:22;;;;;;;4.05;2.58;;;;;;;9.55;54.11;100394.66;7793882;32;37197;-83
2023/10/16 07:16:41;;;;;;;5.95;2.70;;;;;;;9.78;53.33;100391.72;7779630;32;39041;-77
2023/10/16 07:25:23;;;;;;;4.32;2.53;;;;;;;9.40;54.12;100406.97;7793552;32;38046;-82
2023/10/16 07:29:42;;;;;;;6.18;3.00;;;;;;;9.03;54.79;100410.19;7793727;32;37911;-82
2023/10/16 07:34:04;;;;;;;6.68;2.65;;;;;;;9.10;54.72;100399.16;7793339;32;39289;-82
2023/10/16 07:38:28;;;;;;;9.18;2.70;;;;;;;9.35;54.25;100400.66;7793351;32;40080;-82
2023/10/16 07:42:46;;;;;;;4.93;2.72;;;;;;;9.55;54.03;100408.28;7793243;32;37976;-82
2023/10/16 07:47:06;;;;;;;5.70;2.70;;;;;;;9.71;53.78;100412.03;7793472;32;36694;-82
2023/10/16 07:51:27;;;;;;;3.62;2.72;;;;;;;9.70;54.38;100403.06;7792672;32;39175;-82
2023/10/16 07:55:50;;;;;;;6.45;2.83;;;;;;;9.96;53.04;100395.22;7791909;32;41660;-83
2023/10/16 08:00:13;;;;;;;5.80;2.67;;;;;;;10.19;53.68;100396.03;7779117;32;38143;-83
2023/10/16 08:04:35;;;;;;;6.65;2.78;;;;;;;10.47;52.85;100398.59;7792372;32;36879;-83
2023/10/16 08:09:45;;;;;;;5.72;2.67;;;;;;;10.03;52.46;100381.41;7792745;32;39112;-83
2023/10/16 08:13:33;;;;;;;4.53;2.87;;;;;;;10.42;53.17;100379.44;7792981;32;40889;-83
2023/10/16 08:17:50;;;;;;;4.25;2.60;;;;;;;10.84;51.65;100386.94;7793058;32;38018;-83
2023/10/16 08:22:13;;;;;;;3.78;2.33;;;;;;;10.92;50.67;100382.09;7792976;32;37007;-82
2023/10/16 08:26:30;;;;;;;7.45;2.35;;;;;;;11.32;48.29;100391.69;7792966;32;39761;-83
2023/10/16 08:35:09;;;;;;;4.55;2.42;;;;;;;11.78;48.47;100390.06;7792771;32;38035;-83
2023/10/16 08:39:26;;;;;;;5.53;2.65;;;;;;;11.31;48.19;100390.88;7792872;32;36964;-82
2023/10/16 08:43:53;;;;;;;3.33;2.35;;;;;;;11.19;49.08;100399.25;7792738;32;39479;-83
2023/10/16 08:48:10;;;;;;;7.37;2.45;;;;;;;10.94;48.21;100402.59;7792349;32;40858;-83
2023/10/16 08:52:34;;;;;;;5.30;2.55;;;;;;;11.13;49.45;100403.00;7792253;32;37944;-83
2023/10/16 08:56:53;;;;;;;4.10;2.45;;;;;;;11.47;48.48;100400.00;7792693;32;37166;-82
2023/10/16 09:01:12;;;;;;;5.87;2.37;;;;;;;11.94;47.19;100401.94;7779023;32;39964;-83
2023/10/16 09:05:29;;;;;;;3.85;2.20;;;;;;;12.13;46.44;100406.94;7792466;32;40437;-83
2023/10/16 09:09:53;;;;;;;4.50;2.10;;;;;;;12.19;46.31;100406.69;7792347;32;37961;-83
2023/10/16 09:14:16;;;;;;;3.10;2.12;;;;;;;12.23;45.40;100411.59;7785525;32;38011;-82
2023/10/16 09:18:34;;;;;;;4.80;2.28;;;;;;;11.97;45.63;100417.81;7765232;32;39351;-82
2023/10/16 09:22:51;;;;;;;4.00;2.03;;;;;;;12.47;44.39;100407.34;7764903;32;39972;-82
2023/10/16 09:27:16;;;;;;;4.93;1.85;;;;;;;12.87;44.16;100400.28;7765011;32;38152;-82
2023/10/16 09:31:33;;;;;;;4.55;1.83;;;;;;;12.80;44.05;100398.91;7753369;32;376368;-83
2023/10/16 09:35:50;;;;;;;2.72;1.50;;;;;;;13.15;42.34;100401.66;7765038;32;39349;-82
2023/10/16 09:40:19;;;;;;;5.07;1.92;;;;;;;14.06;42.33;100390.81;7769369;32;40310;-82
2023/10/16 09:44:59;;;;;;;5.53;1.75;;;;;;;14.46;39.50;100379.94;7784482;32;37999;-83
2023/10/16 09:49:28;;;;;;;4.37;1.67;;;;;;;14.65;37.45;100386.41;7791970;32;37876;-82
2023/10/16 09:53:45;;;;;;;3.12;1.48;;;;;;;14.02;39.73;100380.69;7786537;32;40244;-84
2023/10/16 09:58:03;;;;;;;2.83;1.50;;;;;;;14.50;37.73;100381.00;7770157;32;40828;-86
2023/10/16 10:02:20;;;;;;;3.70;1.48;;;;;;;14.74;36.34;100378.41;7774790;32;38794;-86
2023/10/16 10:06:39;;;;;;;5.80;1.60;;;;;;;15.16;36.65;100362.41;7777569;32;36998;-88
2023/10/16 10:11:26;;;;;;;5.20;2.17;;;;;;;15.17;34.96;100369.56;7784784;32;40063;-89
2023/10/16 10:15:47;;;;;;;3.75;1.30;;;;;;;15.22;36.96;100372.25;7753911;32;40743;-89
2023/10/16 10:20:08;;;;;;;4.93;1.58;;;;;;;15.38;35.31;100362.78;7774395;32;38863;-89
2023/10/16 10:24:25;;;;;;;5.87;1.98;;;;;;;14.57;35.17;100376.03;7768917;32;37018;-88
2023/10/16 10:28:45;;;;;;;8.25;1.70;;;;;;;14.83;36.11;100359.41;7764541;32;39343;-89
2023/10/16 10:33:03;;;;;;;5.32;1.77;;;;;;;14.95;34.70;100357.12;7763049;32;39883;-87
2023/10/16 10:37:47;;;;;;;4.32;1.58;;;;;;;15.38;33.98;100342.72;7776906;32;38649;-87
2023/10/16 10:42:04;;;;;;;;;;;;;;;15.80;33.92;100340.34;7763859;32;38085;-86
2023/10/16 10:46:26;;;;;;;2.58;1.52;;;;;;;16.33;34.41;100324.53;7763785;32;39369;-85
2023/10/16 10:50:45;;;;;;;5.28;1.77;;;;;;;15.61;33.72;100321.87;7763462;32;40935;-86
2023/10/16 10:55:07;;;;;;;1.87;1.45;;;;;;;15.81;34.72;100317.25;7763311;32;37927;-86
2023/10/16 10:59:39;;;;;;;4.78;1.48;;;;;;;16.71;32.57;100293.41;7763248;32;37801;-86
2023/10/16 11:03:56;;;;;;;6.33;2.00;;;;;;;16.82;33.27;100300.38;7763040;32;39359;-86
2023/10/16 11:12:30;;;;;;;2.62;1.52;;;;;;;17.92;29.92;100282.34;7763653;32;37822;-86
2023/10/16 11:16:49;;;;;;;2.40;1.40;;;;;;;17.98;29.36;100283.84;7766687;32;37783;-86
2023/10/16 11:21:06;;;;;;;4.85;1.60;;;;;;;17.25;29.58;100289.19;7752999;32;39356;-86
2023/10/16 11:25:28;;;;;;;3.50;1.48;;;;;;;17.42;30.80;100279.50;7766429;32;39813;-86
2023/10/16 11:29:46;;;;;;;5.60;1.40;;;;;;;17.82;29.27;100272.31;7753358;32;38782;-85
2023/10/16 11:34:07;;;;;;;5.07;1.37;;;;;;;17.07;30.71;100276.28;7766447;32;37738;-86
2023/10/16 11:38:31;;;;;;;7.00;1.45;;;;;;;17.41;30.68;100278.66;7766462;32;39353;-86
2023/10/16 11:42:52;;;;;;;2.97;1.40;;;;;;;16.79;30.85;100259.69;7766306;32;40833;-85
2023/10/16 11:47:09;;;;;;;4.25;1.67;;;;;;;17.08;31.08;100264.97;7766461;32;38631;-86
2023/10/16 11:51:26;;;;;;;1.98;1.50;;;;;;;17.58;29.77;100264.28;7766294;32;37100;-86
2023/10/16 11:55:45;;;;;;;1.98;1.37;;;;;;;17.10;30.33;100259.16;7766300;32;39863;-86
2023/10/16 12:00:15;;;;;;;4.68;1.80;;;;;;;17.19;31.03;100260.06;7752490;32;39986;-85
2023/10/16 12:04:32;;;;;;;2.58;1.40;;;;;;;18.45;30.11;100261.53;7766051;32;37668;-86
2023/10/16 12:08:49;;;;;;;4.65;1.67;;;;;;;18.16;27.81;100253.66;7765959;32;38086;-85
2023/10/16 12:13:06;;;;;;;2.67;1.42;;;;;;;17.29;29.38;100250.00;7752140;32;40006;-85
2023/10/16 12:17:24;;;;;;;4.32;1.50;;;;;;;17.55;29.46;100229.06;7752199;32;40753;-86
2023/10/16 12:21:42;;;;;;;3.92;1.37;;;;;;;17.80;28.84;100244.25;7765671;32;38759;-87
2023/10/16 12:26:00;;;;;;;2.70;1.23;;;;;;;18.70;28.41;100226.97;7764125;32;36107;-85
2023/10/16 12:30:16;;;;;;;5.97;1.35;;;;;;;18.70;26.48;100231.69;7765735;32;39060;-87
2023/10/16 12:34:33;;;;;;;4.28;1.10;;;;;;;18.48;27.19;100241.59;7765740;32;40009;-86
2023/10/16 12:38:53;;;;;;;1.05;0.95;;;;;;;19.07;25.14;100219.38;7765683;32;38110;-86
2023/10/16 12:43:09;;;;;;;1.92;1.10;;;;;;;17.86;26.80;100227.59;7751999;32;37034;-87
2023/10/16 12:47:26;;;;;;;2.15;1.25;;;;;;;18.46;26.40;100220.97;7764320;32;39088;-87
2023/10/16 12:51:58;;;;;;;2.87;1.37;;;;;;;17.83;26.31;100226.25;7753598;32;40672;-82
2023/10/16 12:56:17;;;;;;;3.65;1.20;;;;;;;17.92;27.36;100220.84;7765352;32;38111;-82
2023/10/16 13:00:38;;;;;;;3.08;1.17;;;;;;;18.01;27.37;100228.06;7765504;32;37419;-82
2023/10/16 13:04:57;;;;;;;2.87;1.12;;;;;;;18.36;24.82;100222.03;7765617;32;39824;-82
2023/10/16 13:09:17;;;;;;;1.50;1.12;;;;;;;18.01;26.00;100214.28;7765380;32;39463;-82
2023/10/16 13:13:34;;;;;;;2.33;1.30;;;;;;;18.49;24.68;100217.56;7765301;32;37891;-82
2023/10/16 13:17:52;;;;;;;3.53;1.20;;;;;;;19.20;24.31;100203.03;7765248;32;37855;-82
2023/10/16 13:22:10;;;;;;;3.00;1.00;;;;;;;19.56;23.70;100199.19;7764997;32;39059;-82
2023/10/16 13:26:29;;;;;;;3.92;1.50;;;;;;;19.49;24.31;100208.00;7765324;32;40866;-82
2023/10/16 13:30:45;;;;;;;1.65;1.08;;;;;;;18.25;26.42;100209.59;7764964;32;37355;-83
2023/10/16 13:35:12;;;;;;;4.75;1.30;;;;;;;17.72;28.10;100213.81;7764377;32;38040;-81
2023/10/16 13:39:33;;;;;;;1.33;1.10;;;;;;;18.47;26.23;100214.31;7785153;32;39312;-81
2023/10/16 13:43:49;;;;;;;3.35;1.12;;;;;;;18.82;27.21;100209.00;7791160;32;41049;-81
2023/10/16 13:48:09;;;;;;;7.03;1.25;;;;;;;19.19;25.75;100204.16;7791086;32;37944;-82
2023/10/16 13:52:26;;;;;;;3.28;1.08;;;;;;;19.07;26.62;100205.56;7791486;32;36896;-83
2023/10/16 13:56:46;;;;;;;2.05;0.90;;;;;;;19.13;25.22;100198.75;7791591;32;39256;-81
2023/10/16 14:01:05;;;;;;;1.40;1.10;;;;;;;19.38;25.48;100193.63;7790911;32;40586;-81
2023/10/16 14:05:21;;;;;;;2.62;1.08;;;;;;;19.22;23.79;100196.03;7790930;32;38885;-82
2023/10/16 14:09:38;;;;;;;9.77;1.20;;;;;;;19.05;23.84;100202.31;7790787;32;37065;-82
2023/10/16 14:13:54;;;;;;;2.75;0.90;;;;;;;18.86;24.33;100202.53;7790910;32;39912;-81
2023/10/16 14:18:15;;;;;;;1.98;1.05;;;;;;;18.12;24.52;100203.00;7790528;32;40019;-82
2023/10/16 14:22:32;;;;;;;7.53;1.10;;;;;;;18.68;24.21;100186.97;7790350;32;38062;-83
2023/10/16 14:26:54;;;;;;;7.25;1.62;;;;;;;19.39;23.68;100188.94;7790422;32;38954;-83
2023/10/16 14:31:17;;;;;;;2.83;1.10;;;;;;;19.23;23.36;100191.31;7790245;32;39067;-82
2023/10/16 14:35:38;;;;;;;2.75;1.15;;;;;;;19.62;23.28;100181.34;7790437;32;39800;-84
2023/10/16 14:39:56;;;;;;;6.93;1.00;;;;;;;19.76;21.84;100176.47;7776137;32;37662;-83
2023/10/16 14:44:13;;;;;;;3.75;1.12;;;;;;;20.04;21.88;100170.62;7790182;32;37915;-84
2023/10/16 14:48:50;;;;;;;4.40;1.25;;;;;;;20.55;21.09;100163.41;7792111;32;39325;-85
2023/10/16 14:53:07;;;;;;;5.82;1.20;;;;;;;21.96;20.54;100169.06;7779741;32;40556;-84
2023/10/16 14:57:24;;;;;;;2.95;1.25;;;;;;;24.33;16.92;100152.53;7793221;32;37998;-85
2023/10/16 15:01:40;;;;;;;2.92;1.37;;;;;;;25.53;15.99;100148.78;7793505;32;37802;-84
2023/10/16 15:06:00;;;;;;;3.30;1.23;;;;;;;25.63;15.90;100153.81;7793300;32;39464;-84
2023/10/16 15:10:17;;;;;;;6.85;1.90;;;;;;;25.99;15.43;100153.78;7793147;32;39983;-81
2023/10/16 15:14:52;;;;;;;6.25;2.53;;;;;;;23.83;18.00;100159.47;7793126;32;37898;-81
2023/10/16 15:19:10;;;;;;;3.75;1.90;;;;;;;22.32;20.04;100160.09;7793238;32;37827;-81
2023/10/16 15:23:31;;;;;;;7.18;3.10;;;;;;;20.32;22.01;100170.31;7792928;32;38782;-81
2023/10/16 15:27:48;;;;;;;9.02;3.25;;;;;;;19.84;22.67;100172.91;7792961;32;39911;-81
2023/10/16 15:32:07;;;;;;;5.57;2.45;;;;;;;19.16;23.69;100164.12;7793008;32;36864;-81
2023/10/16 15:36:25;;;;;;;5.03;2.62;;;;;;;18.71;24.38;100178.06;7793119;32;36845;-81
2023/10/16 15:40:45;;;;;;;9.90;3.20;;;;;;;18.42;24.78;100178.53;7792769;32;39310;-81
2023/10/16 15:45:02;;;;;;;7.55;3.17;;;;;;;18.18;26.95;100193.50;7793206;32;38295;-76
2023/10/16 15:49:19;;;;;;;6.65;2.78;;;;;;;17.54;27.50;100188.84;7792663;32;38557;-72
2023/10/16 15:53:39;;;;;;;6.05;2.80;;;;;;;16.88;28.41;100194.56;7792787;32;37080;-76
2023/10/16 15:57:56;;;;;;;4.87;2.62;;;;;;;16.76;28.78;100196.94;7778925;32;39274;-76
2023/10/16 16:02:16;;;;;;;8.38;2.30;;;;;;;16.27;29.83;100195.63;7792582;32;39992;-76
2023/10/16 16:06:33;;;;;;;5.37;2.53;;;;;;;15.84;31.24;100195.72;7792872;32;37975;-75
2023/10/16 16:10:51;;;;;;;11.70;3.50;;;;;;;15.46;31.21;100203.91;7792923;32;37283;-76
2023/10/16 16:15:08;;;;;;;5.65;2.42;;;;;;;15.07;33.26;100207.66;7792294;32;40139;-75
2023/10/16 16:19:25;;;;;;;8.25;2.85;;;;;;;15.03;33.76;100202.72;7792352;32;40789;-76
2023/10/16 16:23:42;;;;;;;5.90;2.42;;;;;;;14.73;34.58;100211.28;7792012;32;38747;-76
2023/10/16 16:27:59;;;;;;;4.50;2.50;;;;;;;14.44;35.01;100218.38;7792134;32;37364;-75
2023/10/16 16:32:17;;;;;;;9.65;3.08;;;;;;;14.00;34.60;100229.38;7792449;32;40090;-76
2023/10/16 16:36:35;;;;;;;5.90;2.45;;;;;;;13.83;35.23;100229.75;7792442;32;41027;-77
2023/10/16 16:40:51;;;;;;;9.48;2.75;;;;;;;13.63;36.11;100227.97;7792121;32;38097;-77
2023/10/16 16:45:08;;;;;;;5.22;2.95;;;;;;;13.48;36.99;100237.88;7792238;32;37644;-77
2023/10/16 16:49:26;;;;;;;6.10;2.85;;;;;;;13.20;37.35;100233.84;7792085;32;39311;-75
2023/10/16 16:53:43;;;;;;;6.03;2.90;;;;;;;13.14;37.97;100244.00;7792075;32;40421;-75
2023/10/16 16:58:00;;;;;;;8.88;3.17;;;;;;;13.02;37.89;100248.13;7791941;32;38738;-77
2023/10/16 17:02:17;;;;;;;4.57;2.78;;;;;;;12.78;38.01;100252.25;7792414;32;36806;-77
2023/10/16 17:06:34;;;;;;;9.20;3.60;;;;;;;12.66;39.11;100251.72;7791546;32;39960;-77
2023/10/16 17:10:52;;;;;;;7.85;4.43;;;;;;;12.52;38.99;100250.63;7790844;32;39659;-77
2023/10/16 17:15:16;;;;;;;8.70;4.47;;;;;;;12.44;39.64;100260.19;7791700;32;38106;-77
2023/10/16 17:19:33;;;;;;;7.18;3.60;;;;;;;12.23;40.43;100248.44;7791746;32;37877;-77
2023/10/16 17:23:49;;;;;;;9.32;4.07;;;;;;;12.05;41.11;100271.63;7791506;32;39406;-77
2023/10/16 17:28:07;;;;;;;4.28;2.67;;;;;;;12.18;41.01;100270.28;7791514;32;39793;-77
2023/10/16 17:32:24;;;;;;;3.28;2.03;;;;;;;12.03;40.97;100269.16;7791896;32;37992;-77
2023/10/16 17:36:43;;;;;;;5.32;2.62;;;;;;;11.79;41.66;100273.44;7791527;32;37788;-77
2023/10/16 17:41:01;;;;;;;5.70;2.92;;;;;;;11.73;41.72;100267.13;7791194;32;38589;-74
2023/10/16 17:45:18;;;;;;;5.03;2.65;;;;;;;11.55;42.14;100276.59;7791520;32;39366;-75
2023/10/16 17:49:35;;;;;;;8.30;3.10;;;;;;;11.51;42.04;100280.97;7791363;32;38497;-76
2023/10/16 17:53:51;;;;;;;6.10;3.30;;;;;;;11.54;42.14;100285.91;7790441;32;38040;-76
2023/10/16 17:58:09;;;;;;;10.95;4.50;;;;;;;11.48;42.76;100292.41;7791858;32;39875;-76
2023/10/16 18:02:30;;;;;;;7.37;4.18;;;;;;;11.08;45.04;100297.38;7791801;32;40657;-75
2023/10/16 18:06:49;;;;;;;13.52;4.45;;;;;;;10.96;45.16;100298.66;7791517;32;38464;-75
2023/10/16 18:11:13;;;;;;;10.00;4.87;;;;;;;10.85;45.89;100301.31;7789003;32;37952;-75
2023/10/16 18:15:30;;;;;;;8.50;4.32;;;;;;;11.11;45.68;100300.66;7791348;32;39302;-76
2023/10/16 18:19:47;;;;;;;10.02;4.55;;;;;;;10.76;45.72;100305.59;7786270;32;40063;-76
2023/10/16 18:24:05;;;;;;;7.87;4.20;;;;;;;10.67;46.14;100304.44;7790859;32;38917;-75
2023/10/16 18:28:25;;;;;;;8.65;3.20;;;;;;;10.41;46.36;100306.91;7785664;32;37063;-75
2023/10/16 18:32:45;;;;;;;6.93;3.62;;;;;;;10.30;46.80;100310.63;7763842;32;39377;-76
2023/10/16 18:37:04;;;;;;;6.18;2.90;;;;;;;10.19;46.92;100303.41;7763756;32;40122;-76
2023/10/16 18:41:22;;;;;;;6.70;2.95;;;;;;;10.28;46.42;100308.16;7757898;32;38152;-77
2023/10/16 18:45:40;;;;;;;6.75;3.10;;;;;;;10.17;46.36;100321.91;7790637;32;37088;-75
2023/10/16 18:49:56;;;;;;;4.57;2.90;;;;;;;9.92;47.35;100315.09;7790528;32;39356;-76
2023/10/16 18:54:14;;;;;;;4.90;2.75;;;;;;;10.09;46.84;100325.91;7780098;32;40950;-76
2023/10/16 18:58:34;;;;;;;7.75;2.87;;;;;;;9.82;47.60;100320.44;7763260;32;38046;-75
2023/10/16 19:02:57;;;;;;;7.03;3.22;;;;;;;9.73;47.84;100322.78;7784923;32;36746;-76
2023/10/16 19:07:13;;;;;;;6.55;3.15;;;;;;;9.91;47.70;100324.34;7776037;32;39336;-75
2023/10/16 19:11:32;;;;;;;4.12;2.50;;;;;;;9.84;47.87;100329.16;7774638;32;40931;-77
2023/10/16 19:15:49;;;;;;;4.30;2.80;;;;;;;9.80;47.51;100336.22;7774428;32;37931;-77
2023/10/16 19:20:09;;;;;;;4.30;2.50;;;;;;;9.51;48.16;100342.63;7771616;32;37275;-77
2023/10/16 19:24:27;;;;;;;3.45;2.28;;;;;;;9.28;47.79;100346.41;7767739;32;39265;-77
2023/10/16 19:28:47;;;;;;;6.15;3.62;;;;;;;9.29;47.82;100349.94;7773574;32;39496;-76
2023/10/16 19:33:04;;;;;;;12.88;5.82;;;;;;;9.42;47.66;100356.91;7774654;32;38260;-77
2023/10/16 19:37:22;;;;;;;10.50;5.15;;;;;;;9.20;48.93;100360.41;7778171;32;36881;-79
2023/10/16 19:41:38;;;;;;;7.55;3.95;;;;;;;9.17;49.58;100363.63;7776604;32;39347;-79
2023/10/16 19:45:55;;;;;;;8.55;4.20;;;;;;;9.15;49.79;100360.34;7778289;32;38745;-77
2023/10/16 19:50:14;;;;;;;6.68;3.72;;;;;;;8.96;50.28;100363.28;7777091;32;36799;-76
2023/10/16 19:54:32;;;;;;;6.53;3.00;;;;;;;9.20;49.98;100369.37;7777765;32;37966;-76
2023/10/16 19:58:56;;;;;;;6.20;2.83;;;;;;;9.14;50.53;100375.00;7777430;32;39361;-76
2023/10/16 20:03:15;;;;;;;;;;;;;;;9.11;50.09;100375.50;7777967;32;40578;-75
2023/10/16 20:07:31;;;;;;;3.62;2.50;;;;;;;9.04;49.85;100386.56;7777268;32;38322;-76
2023/10/16 20:11:47;;;;;;;5.32;2.20;;;;;;;8.56;50.31;100383.28;7777402;32;37494;-76
2023/10/16 20:16:04;;;;;;;6.82;2.20;;;;;;;8.63;49.59;100381.22;7777815;32;40178;-76
2023/10/16 20:20:39;;;;;;;4.62;2.30;;;;;;;8.73;49.44;100386.03;7777126;32;39888;-76
2023/10/16 20:24:55;;;;;;;3.65;2.40;;;;;;;8.70;49.47;100382.97;7776206;32;38067;-75
2023/10/16 20:29:11;;;;;;;3.65;2.37;;;;;;;8.49;50.02;100398.91;7777112;32;37894;-78
2023/10/16 20:33:28;;;;;;;4.03;2.55;;;;;;;8.47;50.19;100398.34;7777322;32;38814;-79
2023/10/16 20:37:45;;;;;;;4.05;2.47;;;;;;;8.35;50.28;100406.50;7776341;32;40070;-78
2023/10/16 20:42:02;;;;;;;7.28;2.80;;;;;;;8.48;50.14;100399.97;7776377;32;38673;-77
2023/10/16 20:46:18;;;;;;;7.65;2.58;;;;;;;8.43;50.12;100394.44;7774612;32;37840;-78
2023/10/16 20:50:36;;;;;;;3.35;2.42;;;;;;;8.33;49.84;100407.78;7776508;32;39131;-78
2023/10/16 20:54:53;;;;;;;3.60;2.60;;;;;;;8.07;49.75;100405.41;7769077;32;39880;-78
2023/10/16 20:59:09;;;;;;;5.22;2.67;;;;;;;7.94;49.98;100402.13;7777005;32;37886;-78
2023/10/16 21:03:25;;;;;;;5.15;2.95;;;;;;;8.01;49.79;100402.81;7776048;32;37034;-78
2023/10/16 21:07:44;;;;;;;4.00;2.53;;;;;;;7.76;50.50;100401.22;7776620;32;39406;-78
2023/10/16 21:12:00;;;;;;;5.03;2.78;;;;;;;7.84;50.38;100408.97;7775486;32;40356;-78
2023/10/16 21:16:17;;;;;;;6.43;2.62;;;;;;;7.99;50.05;100405.78;7776053;32;37648;-78
2023/10/16 21:20:33;;;;;;;4.03;2.50;;;;;;;7.89;50.46;100397.41;7776908;32;37810;-77
2023/10/16 21:24:59;;;;;;;3.45;2.45;;;;;;;7.59;51.02;100392.97;7765932;32;40125;-78
2023/10/16 21:29:15;;;;;;;8.10;2.95;;;;;;;7.58;51.15;100396.72;7787868;32;39907;-80
2023/10/16 21:33:32;;;;;;;5.68;2.67;;;;;;;7.42;51.51;100401.00;7792150;32;37908;-77
2023/10/16 21:37:48;;;;;;;4.25;2.55;;;;;;;7.61;51.09;100392.75;7791465;32;37115;-77
2023/10/16 21:42:05;;;;;;;5.00;2.70;;;;;;;7.59;51.00;100397.56;7791665;32;40119;-77
2023/10/16 21:46:21;;;;;;;3.65;2.62;;;;;;;7.58;51.00;100396.72;7792102;32;40004;-78
2023/10/16 21:50:38;;;;;;;5.65;2.50;;;;;;;7.63;50.81;100404.19;7791953;32;37963;-79
2023/10/16 21:54:54;;;;;;;6.50;2.60;;;;;;;7.41;51.32;100404.75;7791927;32;37553;-79
2023/10/16 21:59:11;;;;;;;2.45;2.25;;;;;;;7.61;54.59;100411.72;7777147;32;40071;-79
2023/10/16 22:03:29;;;;;;;5.28;2.78;;;;;;;7.78;51.54;100407.22;7791451;32;39944;-79
2023/10/16 22:07:45;;;;;;;4.37;2.75;;;;;;;7.40;51.74;100419.41;7791479;32;37938;-79